createdAt,value
2022-09-11T00:00:59.347Z,83.75
2022-09-11T00:03:28.096Z,83.83
2022-09-11T00:05:54.804Z,83.78
2022-09-11T00:08:21.461Z,83.64
2022-09-11T00:10:48.568Z,83.59
2022-09-11T00:13:22.432Z,84.57
2022-09-11T00:15:50.213Z,84.23
2022-09-11T00:18:21.752Z,83.96
2022-09-11T00:20:52.894Z,84.14
2022-09-11T00:23:19.882Z,84.16
2022-09-11T00:25:46.962Z,84.21
2022-09-11T00:28:16.234Z,83.97
2022-09-11T00:30:46.280Z,84.28
2022-09-11T00:33:13.570Z,84.18
2022-09-11T00:35:40.576Z,84.27
2022-09-11T00:38:17.041Z,84.13
2022-09-11T00:40:46.641Z,84.17
2022-09-11T00:43:16.719Z,84.62
2022-09-11T00:45:46.657Z,84.30
2022-09-11T00:48:14.785Z,84.49
2022-09-11T00:50:41.476Z,84.35
2022-09-11T00:53:08.172Z,84.56
2022-09-11T00:55:35.490Z,84.83
2022-09-11T00:58:08.032Z,84.98
2022-09-11T01:00:35.415Z,84.56
2022-09-11T01:03:03.225Z,84.85
2022-09-11T01:05:32.341Z,84.72
2022-09-11T01:07:59.079Z,84.81
2022-09-11T01:11:03.934Z,84.83
2022-09-11T01:13:57.167Z,84.89
2022-09-11T01:16:26.106Z,84.79
2022-09-11T01:19:43.769Z,84.99
2022-09-11T01:22:48.060Z,84.72
2022-09-11T01:25:34.786Z,84.76
2022-09-11T01:28:04.078Z,84.85
2022-09-11T01:30:37.532Z,84.89
2022-09-11T01:33:18.768Z,84.95
2022-09-11T01:36:06.314Z,84.74
2022-09-11T01:38:54.693Z,84.95
2022-09-11T01:41:37.387Z,84.51
2022-09-11T01:44:07.216Z,84.86
2022-09-11T01:46:41.041Z,84.50
2022-09-11T01:49:18.309Z,84.77
2022-09-11T01:51:44.862Z,84.61
2022-09-11T01:54:14.681Z,84.42
2022-09-11T01:56:57.454Z,84.22
2022-09-11T01:59:27.953Z,84.25
2022-09-11T02:02:00.512Z,83.93
2022-09-11T02:04:30.356Z,83.95
2022-09-11T02:07:05.098Z,83.95
2022-09-11T02:09:34.720Z,84.17
2022-09-11T02:12:02.597Z,83.85
2022-09-11T02:14:49.457Z,84.18
2022-09-11T02:17:37.179Z,84.22
2022-09-11T02:20:03.962Z,84.42
2022-09-11T02:22:31.030Z,84.05
2022-09-11T02:24:57.590Z,83.91
2022-09-11T02:27:25.904Z,84.01
2022-09-11T02:29:53.884Z,84.43
2022-09-11T02:32:21.884Z,84.01
2022-09-11T02:34:48.617Z,84.09
2022-09-11T02:37:34.660Z,84.02
2022-09-11T02:40:16.456Z,83.94
2022-09-11T02:42:47.432Z,83.85
2022-09-11T02:45:32.589Z,83.55
2022-09-11T02:48:38.221Z,83.67
2022-09-11T02:51:56.549Z,83.51
2022-09-11T02:54:59.968Z,83.34
2022-09-11T02:57:33.876Z,83.59
2022-09-11T03:00:06.010Z,83.47
2022-09-11T03:02:34.306Z,83.55
2022-09-11T03:05:00.852Z,83.72
2022-09-11T03:07:27.598Z,83.68
2022-09-11T03:09:54.166Z,83.41
2022-09-11T03:12:20.755Z,83.89
2022-09-11T03:14:48.727Z,83.68
2022-09-11T03:17:15.322Z,83.57
2022-09-11T03:19:41.884Z,83.80
2022-09-11T03:22:08.527Z,83.88
2022-09-11T03:24:35.154Z,83.43
2022-09-11T03:27:01.758Z,83.26
2022-09-11T03:29:28.324Z,83.79
2022-09-11T03:31:54.936Z,83.35
2022-09-11T03:34:22.960Z,83.47
2022-09-11T03:36:49.576Z,83.61
2022-09-11T03:39:16.277Z,83.53
2022-09-11T03:41:43.020Z,83.29
2022-09-11T03:44:09.907Z,82.92
2022-09-11T03:46:36.719Z,83.08
2022-09-11T03:49:03.294Z,82.88
2022-09-11T03:51:32.178Z,82.51
2022-09-11T03:54:00.861Z,82.88
2022-09-11T03:56:28.862Z,82.43
2022-09-11T03:59:00.174Z,82.89
2022-09-11T04:01:26.923Z,82.86
2022-09-11T04:03:53.657Z,83.36
2022-09-11T04:06:20.429Z,83.45
2022-09-11T04:08:47.095Z,83.79
2022-09-11T04:11:14.457Z,84.00
2022-09-11T04:13:42.184Z,84.26
2022-09-11T04:16:11.640Z,84.30
2022-09-11T04:18:38.980Z,84.17
2022-09-11T04:21:09.875Z,84.32
2022-09-11T04:23:36.718Z,84.44
2022-09-11T04:26:03.759Z,84.40
2022-09-11T04:28:30.831Z,84.61
2022-09-11T04:31:02.073Z,84.65
2022-09-11T04:33:28.637Z,85.01
2022-09-11T04:35:55.381Z,84.73
2022-09-11T04:38:23.105Z,84.77
2022-09-11T04:40:50.135Z,85.17
2022-09-11T04:43:17.859Z,84.85
2022-09-11T04:45:44.491Z,84.85
2022-09-11T04:48:11.056Z,85.14
2022-09-11T04:50:37.816Z,85.45
2022-09-11T04:53:04.471Z,85.32
2022-09-11T04:55:31.074Z,85.08
2022-09-11T04:57:57.647Z,85.67
2022-09-11T05:00:25.151Z,85.22
2022-09-11T05:02:54.570Z,85.15
2022-09-11T05:05:21.318Z,85.54
2022-09-11T05:07:51.019Z,84.99
2022-09-11T05:10:17.676Z,84.99
2022-09-11T05:12:44.230Z,85.30
2022-09-11T05:15:11.174Z,84.81
2022-09-11T05:17:39.344Z,84.73
2022-09-11T05:20:11.159Z,84.48
2022-09-11T05:22:38.639Z,84.32
2022-09-11T05:25:05.282Z,84.36
2022-09-11T05:27:31.922Z,84.47
2022-09-11T05:29:58.508Z,84.68
2022-09-11T05:32:25.077Z,84.67
2022-09-11T05:34:51.726Z,84.23
2022-09-11T05:37:18.295Z,84.50
2022-09-11T05:39:44.946Z,84.50
2022-09-11T05:42:15.222Z,84.12
2022-09-11T05:44:42.223Z,84.26
2022-09-11T05:47:08.906Z,84.11
2022-09-11T05:49:35.518Z,84.21
2022-09-11T05:52:02.525Z,84.13
2022-09-11T05:54:29.168Z,84.01
2022-09-11T05:56:55.753Z,83.54
2022-09-11T05:59:22.430Z,83.48
2022-09-11T06:01:50.338Z,83.07
2022-09-11T06:04:18.593Z,82.95
2022-09-11T06:06:47.987Z,82.85
2022-09-11T06:09:15.122Z,82.13
2022-09-11T06:11:41.747Z,81.77
2022-09-11T06:14:09.014Z,81.79
2022-09-11T06:16:35.718Z,81.56
2022-09-11T06:19:03.673Z,81.16
2022-09-11T06:21:31.289Z,81.84
2022-09-11T06:23:57.907Z,81.53
2022-09-11T06:26:25.704Z,81.32
2022-09-11T06:28:52.785Z,81.02
2022-09-11T06:31:24.412Z,80.59
2022-09-11T06:33:51.496Z,80.39
2022-09-11T06:36:23.679Z,80.32
2022-09-11T06:38:57.330Z,79.52
2022-09-11T06:41:24.684Z,80.26
2022-09-11T06:43:51.347Z,80.40
2022-09-11T06:46:20.224Z,80.68
2022-09-11T06:48:48.346Z,80.87
2022-09-11T06:51:16.231Z,80.52
2022-09-11T06:53:43.203Z,80.31
2022-09-11T06:56:13.300Z,80.16
2022-09-11T06:58:43.930Z,80.43
2022-09-11T07:01:15.211Z,79.90
2022-09-11T07:03:46.227Z,79.26
2022-09-11T07:06:13.839Z,78.06
2022-09-11T07:08:40.667Z,78.40
2022-09-11T07:11:08.251Z,77.80
2022-09-11T07:13:37.462Z,75.20
2022-09-11T07:16:08.910Z,74.95
2022-09-11T07:18:39.046Z,74.59
2022-09-11T07:21:16.418Z,74.10
2022-09-11T07:23:43.528Z,74.06
2022-09-11T07:26:11.561Z,73.47
2022-09-11T07:28:38.486Z,73.38
2022-09-11T07:31:08.074Z,72.95
2022-09-11T07:33:34.718Z,72.89
2022-09-11T07:36:01.368Z,73.64
2022-09-11T07:38:29.454Z,73.89
2022-09-11T07:40:56.649Z,74.81
2022-09-11T07:43:23.246Z,75.25
2022-09-11T07:45:53.290Z,75.85
2022-09-11T07:48:19.875Z,76.23
2022-09-11T07:51:16.427Z,76.01
2022-09-11T07:53:44.307Z,75.70
2022-09-11T07:56:15.350Z,75.67
2022-09-11T07:58:43.253Z,75.93
2022-09-11T08:01:14.433Z,75.96
2022-09-11T08:03:43.077Z,76.13
2022-09-11T08:06:18.948Z,76.20
2022-09-11T08:08:52.202Z,76.27
2022-09-11T08:11:22.999Z,77.41
2022-09-11T08:13:53.591Z,77.95
2022-09-11T08:16:22.115Z,76.50
2022-09-11T08:18:48.777Z,75.69
2022-09-11T08:21:15.500Z,74.66
2022-09-11T08:23:43.015Z,73.85
2022-09-11T08:26:11.676Z,73.88
2022-09-11T08:28:38.458Z,73.04
2022-09-11T08:31:06.216Z,73.39
2022-09-11T08:33:35.641Z,73.66
2022-09-11T08:36:04.040Z,73.62
2022-09-11T08:38:31.318Z,73.20
2022-09-11T08:40:59.067Z,73.78
2022-09-11T08:43:33.913Z,74.00
2022-09-11T08:46:05.532Z,74.10
2022-09-11T08:49:04.893Z,75.02
2022-09-11T08:51:31.913Z,73.64
2022-09-11T08:53:59.269Z,72.16
2022-09-11T08:56:29.422Z,72.44
2022-09-11T08:59:05.115Z,73.95
2022-09-11T09:01:37.976Z,74.43
2022-09-11T09:04:34.129Z,75.20
2022-09-11T09:07:20.033Z,75.15
2022-09-11T09:10:21.245Z,75.49
2022-09-11T09:12:51.124Z,74.41
2022-09-11T09:15:29.180Z,74.05
2022-09-11T09:18:00.663Z,72.96
2022-09-11T09:20:34.166Z,72.39
2022-09-11T09:23:03.076Z,72.49
2022-09-11T09:25:29.802Z,72.52
2022-09-11T09:28:35.773Z,69.14
2022-09-11T09:31:05.639Z,69.87
2022-09-11T09:33:41.989Z,68.47
2022-09-11T09:36:22.865Z,69.28
2022-09-11T09:38:49.487Z,69.95
2022-09-11T09:41:43.927Z,67.94
2022-09-11T09:44:26.943Z,69.10
2022-09-11T09:46:54.012Z,69.61
2022-09-11T09:49:24.381Z,68.93
2022-09-11T09:51:51.358Z,67.79
2022-09-11T09:54:19.470Z,67.44
2022-09-11T09:57:02.729Z,67.29
2022-09-11T09:59:33.456Z,68.38
2022-09-11T10:02:00.205Z,68.19
2022-09-11T10:04:28.141Z,66.54
2022-09-11T10:07:06.634Z,65.43
2022-09-11T10:09:33.212Z,65.66
2022-09-11T10:12:02.930Z,65.42
2022-09-11T10:14:51.990Z,66.03
2022-09-11T10:17:33.345Z,65.82
2022-09-11T10:20:14.336Z,66.09
2022-09-11T10:22:40.898Z,66.39
2022-09-11T10:25:26.772Z,65.85
2022-09-11T10:28:03.496Z,65.71
2022-09-11T10:30:30.018Z,66.16
2022-09-11T10:33:00.107Z,64.86
2022-09-11T10:35:30.246Z,65.14
2022-09-11T10:38:03.434Z,64.72
2022-09-11T10:40:31.119Z,67.63
2022-09-11T10:42:57.756Z,62.95
2022-09-11T10:45:24.560Z,62.93
2022-09-11T10:48:20.321Z,64.15
2022-09-11T10:50:46.878Z,63.46
2022-09-11T10:53:20.731Z,62.66
2022-09-11T10:56:06.095Z,62.43
2022-09-11T10:58:34.224Z,61.67
2022-09-11T11:01:01.589Z,60.22
2022-09-11T11:03:28.646Z,59.21
2022-09-11T11:06:20.289Z,58.15
2022-09-11T11:09:05.143Z,55.71
2022-09-11T11:11:45.761Z,58.89
2022-09-11T11:14:44.262Z,57.46
2022-09-11T11:17:32.655Z,58.29
2022-09-11T11:20:04.813Z,59.91
2022-09-11T11:22:40.947Z,60.03
2022-09-11T11:25:34.467Z,58.16
2022-09-11T11:28:19.704Z,57.49
2022-09-11T11:31:05.953Z,57.58
2022-09-11T11:33:42.372Z,57.15
2022-09-11T11:36:34.600Z,55.75
2022-09-11T11:39:22.821Z,56.45
2022-09-11T11:42:04.997Z,56.66
2022-09-11T11:44:44.702Z,56.37
2022-09-11T11:47:11.345Z,53.64
2022-09-11T11:49:49.262Z,54.38
2022-09-11T11:52:24.769Z,54.67
2022-09-11T11:55:17.093Z,55.58
2022-09-11T11:57:49.828Z,55.19
2022-09-11T12:00:16.696Z,56.37
2022-09-11T12:03:01.594Z,56.41
2022-09-11T12:05:30.915Z,58.04
2022-09-11T12:07:57.664Z,58.17
2022-09-11T12:10:31.096Z,58.32
2022-09-11T12:13:02.508Z,58.20
2022-09-11T12:15:32.365Z,59.02
2022-09-11T12:18:25.255Z,58.92
2022-09-11T12:20:51.893Z,58.83
2022-09-11T12:23:30.647Z,59.31
2022-09-11T12:29:59.915Z,60.38
2022-09-11T12:32:29.059Z,63.51
2022-09-11T12:34:59.268Z,60.62
2022-09-11T12:37:33.168Z,60.62
2022-09-11T12:40:07.183Z,62.36
2022-09-11T12:42:33.719Z,63.29
2022-09-11T12:45:00.417Z,61.37
2022-09-11T12:47:28.356Z,61.31
2022-09-11T12:50:05.319Z,62.97
2022-09-11T12:52:36.572Z,63.94
2022-09-11T12:55:07.016Z,68.21
2022-09-11T12:57:48.081Z,68.97
2022-09-11T13:00:31.396Z,69.89
2022-09-11T13:02:58.038Z,70.18
2022-09-11T13:05:27.414Z,70.82
2022-09-11T13:07:56.440Z,71.29
2022-09-11T13:10:35.312Z,72.04
2022-09-11T13:13:03.618Z,72.37
2022-09-11T13:15:42.828Z,72.58
2022-09-11T13:18:24.314Z,73.06
2022-09-11T13:21:25.747Z,72.15
2022-09-11T13:23:53.155Z,71.82
2022-09-11T13:26:28.811Z,72.07
2022-09-11T13:28:56.511Z,71.62
2022-09-11T13:31:31.653Z,72.37
2022-09-11T13:33:58.395Z,72.75
2022-09-11T13:36:25.027Z,73.10
2022-09-11T13:38:57.237Z,72.90
2022-09-11T13:41:26.012Z,73.16
2022-09-11T13:44:00.083Z,72.71
2022-09-11T13:46:28.749Z,72.87
2022-09-11T13:49:13.405Z,73.83
2022-09-11T13:51:45.170Z,73.38
2022-09-11T13:54:32.515Z,73.60
2022-09-11T13:57:02.050Z,73.55
2022-09-11T13:59:42.379Z,73.42
2022-09-11T14:02:24.266Z,74.51
2022-09-11T14:04:52.369Z,74.22
2022-09-11T14:07:23.380Z,74.32
2022-09-11T14:10:07.611Z,72.45
2022-09-11T14:12:35.201Z,72.65
2022-09-11T14:15:08.106Z,73.10
2022-09-11T14:17:34.734Z,73.42
2022-09-11T14:20:01.427Z,73.89
2022-09-11T14:22:31.239Z,74.59
2022-09-11T14:25:21.207Z,74.71
2022-09-11T14:27:48.471Z,75.29
2022-09-11T14:30:37.463Z,75.28
2022-09-11T14:33:14.855Z,74.77
2022-09-11T14:35:41.556Z,75.55
2022-09-11T14:38:10.305Z,75.40
2022-09-11T14:40:36.977Z,76.08
2022-09-11T14:43:04.817Z,75.69
2022-09-11T14:45:31.896Z,75.86
2022-09-11T14:48:00.064Z,75.92
2022-09-11T14:50:26.682Z,75.72
2022-09-11T14:52:53.251Z,75.45
2022-09-11T14:55:20.116Z,74.87
2022-09-11T14:57:46.898Z,72.69
2022-09-11T15:00:14.562Z,73.66
2022-09-11T15:02:42.719Z,72.56
2022-09-11T15:05:22.441Z,72.81
2022-09-11T15:07:49.146Z,72.94
2022-09-11T15:10:15.733Z,72.79
2022-09-11T15:12:42.793Z,72.76
2022-09-11T15:15:09.687Z,73.96
2022-09-11T15:17:36.495Z,74.60
2022-09-11T15:20:08.435Z,75.23
2022-09-11T15:22:35.390Z,75.52
2022-09-11T15:25:02.263Z,76.81
2022-09-11T15:27:57.670Z,77.44
2022-09-11T15:30:25.735Z,76.95
2022-09-11T15:32:52.352Z,77.48
2022-09-11T15:35:19.276Z,77.72
2022-09-11T15:37:46.873Z,78.13
2022-09-11T15:40:13.880Z,78.14
2022-09-11T15:42:40.837Z,78.36
2022-09-11T15:45:08.322Z,78.07
2022-09-11T15:47:35.052Z,77.83
2022-09-11T15:50:01.955Z,78.48
2022-09-11T15:52:32.987Z,79.00
2022-09-11T15:54:59.540Z,78.02
2022-09-11T15:57:26.149Z,77.94
2022-09-11T15:59:52.770Z,77.90
2022-09-11T16:02:21.487Z,78.01
2022-09-11T16:04:52.953Z,78.23
2022-09-11T16:07:20.210Z,78.16
2022-09-11T16:09:47.032Z,78.12
2022-09-11T16:12:15.734Z,78.39
2022-09-11T16:14:42.410Z,78.46
2022-09-11T16:17:09.053Z,78.65
2022-09-11T16:19:35.838Z,78.91
2022-09-11T16:22:03.211Z,78.74
2022-09-11T16:24:30.622Z,78.72
2022-09-11T16:26:57.454Z,78.98
2022-09-11T16:29:25.688Z,79.26
2022-09-11T16:31:52.341Z,79.51
2022-09-11T16:34:18.942Z,79.85
2022-09-11T16:36:45.741Z,80.14
2022-09-11T16:39:14.325Z,80.07
2022-09-11T16:41:41.018Z,80.30
2022-09-11T16:44:14.765Z,80.34
2022-09-11T16:46:42.327Z,80.03
2022-09-11T16:49:10.161Z,80.22
2022-09-11T16:51:36.725Z,80.80
2022-09-11T16:54:04.467Z,81.44
2022-09-11T16:56:31.055Z,81.46
2022-09-11T16:58:57.744Z,81.99
2022-09-11T17:01:26.275Z,82.44
2022-09-11T17:03:54.527Z,82.75
2022-09-11T17:06:21.920Z,82.61
2022-09-11T17:08:51.718Z,77.88
2022-09-11T17:11:19.992Z,76.91
2022-09-11T17:13:46.705Z,75.57
2022-09-11T17:16:21.390Z,76.52
2022-09-11T17:18:49.182Z,76.84
2022-09-11T17:21:16.352Z,77.22
2022-09-11T17:23:43.222Z,76.57
2022-09-11T17:26:11.119Z,76.90
2022-09-11T17:28:37.803Z,75.85
2022-09-11T17:31:05.146Z,76.08
2022-09-11T17:33:35.651Z,76.11
2022-09-11T17:36:03.084Z,77.05
2022-09-11T17:38:30.180Z,77.14
2022-09-11T17:41:02.422Z,77.21
2022-09-11T17:43:29.175Z,77.64
2022-09-11T17:46:18.533Z,76.96
2022-09-11T17:48:45.994Z,77.46
2022-09-11T17:51:16.231Z,77.31
2022-09-11T17:53:44.765Z,77.41
2022-09-11T17:56:14.461Z,78.26
2022-09-11T17:58:42.125Z,77.74
2022-09-11T18:01:13.603Z,78.09
2022-09-11T18:03:44.297Z,78.47
2022-09-11T18:06:28.471Z,78.14
2022-09-11T18:08:57.623Z,78.15
2022-09-11T18:11:24.381Z,78.09
2022-09-11T18:13:51.360Z,77.99
2022-09-11T18:16:18.005Z,78.55
2022-09-11T18:18:44.610Z,78.20
2022-09-11T18:21:11.471Z,78.70
2022-09-11T18:23:42.529Z,79.12
2022-09-11T18:26:22.418Z,79.68
2022-09-11T18:28:49.936Z,79.50
2022-09-11T18:31:16.945Z,79.59
2022-09-11T18:33:44.430Z,79.40
2022-09-11T18:36:13.511Z,79.38
2022-09-11T18:38:40.374Z,80.16
2022-09-11T18:41:07.026Z,80.48
2022-09-11T18:43:33.676Z,80.08
2022-09-11T18:46:05.767Z,79.96
2022-09-11T18:48:32.370Z,80.01
2022-09-11T18:51:00.172Z,79.73
2022-09-11T18:53:27.259Z,80.65
2022-09-11T18:56:01.953Z,81.56
2022-09-11T18:58:32.266Z,81.24
2022-09-11T19:01:00.518Z,81.51
2022-09-11T19:03:30.294Z,81.72
2022-09-11T19:06:04.446Z,81.78
2022-09-11T19:08:32.193Z,81.75
2022-09-11T19:11:00.245Z,82.16
2022-09-11T19:13:27.069Z,81.69
2022-09-11T19:15:57.758Z,81.66
2022-09-11T19:18:25.000Z,81.39
2022-09-11T19:21:00.334Z,80.95
2022-09-11T19:23:39.978Z,81.01
2022-09-11T19:26:12.825Z,80.62
2022-09-11T19:28:41.139Z,80.68
2022-09-11T19:31:08.411Z,80.93
2022-09-11T19:33:36.077Z,80.62
2022-09-11T19:36:10.830Z,80.59
2022-09-11T19:38:41.117Z,80.47
2022-09-11T19:41:08.698Z,80.66
2022-09-11T19:43:36.037Z,81.07
2022-09-11T19:46:12.768Z,81.11
2022-09-11T19:48:39.568Z,81.55
2022-09-11T19:51:09.547Z,81.62
2022-09-11T19:53:37.177Z,80.84
2022-09-11T19:56:03.964Z,80.85
2022-09-11T19:58:30.761Z,80.87
2022-09-11T20:00:57.639Z,80.76
2022-09-11T20:03:24.291Z,80.73
2022-09-11T20:05:53.572Z,80.74
2022-09-11T20:08:20.548Z,80.91
2022-09-11T20:10:47.819Z,80.69
2022-09-11T20:13:14.767Z,81.04
2022-09-11T20:15:41.821Z,81.35
2022-09-11T20:18:08.456Z,81.63
2022-09-11T20:20:35.874Z,81.80
2022-09-11T20:23:02.862Z,81.34
2022-09-11T20:25:29.806Z,81.97
2022-09-11T20:27:56.370Z,82.21
2022-09-11T20:30:25.175Z,82.34
2022-09-11T20:32:51.872Z,82.66
2022-09-11T20:35:18.709Z,82.86
2022-09-11T20:37:45.289Z,82.97
2022-09-11T20:40:12.043Z,82.92
2022-09-11T20:42:39.765Z,82.91
2022-09-11T20:45:06.859Z,82.37
2022-09-11T20:47:33.855Z,82.26
2022-09-11T20:50:00.707Z,82.14
2022-09-11T20:52:27.718Z,82.24
2022-09-11T20:54:54.474Z,82.66
2022-09-11T20:57:21.116Z,82.98
2022-09-11T20:59:47.827Z,83.24
2022-09-11T21:02:15.038Z,83.26
2022-09-11T21:04:41.747Z,83.50
2022-09-11T21:07:51.082Z,83.75
2022-09-11T21:10:17.753Z,83.44
2022-09-11T21:12:44.308Z,83.06
2022-09-11T21:15:10.932Z,83.83
2022-09-11T21:17:37.528Z,83.68
2022-09-11T21:20:04.561Z,84.43
2022-09-11T21:22:31.185Z,83.60
2022-09-11T21:24:57.764Z,84.09
2022-09-11T21:27:24.432Z,83.83
2022-09-11T21:29:51.161Z,84.13
2022-09-11T21:32:17.829Z,83.98
2022-09-11T21:34:44.443Z,84.14
2022-09-11T21:37:11.198Z,83.87
2022-09-11T21:39:38.377Z,83.88
2022-09-11T21:42:08.710Z,84.43
2022-09-11T21:44:37.823Z,84.50
2022-09-11T21:47:04.522Z,84.50
2022-09-11T21:49:31.087Z,84.52
2022-09-11T21:51:57.804Z,84.73
2022-09-11T21:54:26.782Z,84.30
2022-09-11T21:56:55.339Z,84.01
2022-09-11T21:59:22.104Z,83.95
2022-09-11T22:01:48.739Z,84.10
2022-09-11T22:04:15.371Z,84.11
2022-09-11T22:06:41.978Z,84.06
2022-09-11T22:09:08.574Z,84.04
2022-09-11T22:11:35.169Z,84.27
2022-09-11T22:14:01.752Z,84.26
2022-09-11T22:16:28.550Z,84.42
2022-09-11T22:18:55.251Z,83.94
2022-09-11T22:21:21.942Z,84.13
2022-09-11T22:23:48.584Z,83.94
2022-09-11T22:26:17.317Z,83.88
2022-09-11T22:28:44.039Z,83.90
2022-09-11T22:31:12.687Z,83.89
2022-09-11T22:33:39.773Z,82.73
2022-09-11T22:36:23.937Z,82.43
2022-09-11T22:38:50.556Z,82.67
2022-09-11T22:41:17.266Z,82.18
2022-09-11T22:43:44.274Z,81.42
2022-09-11T22:46:11.214Z,81.31
2022-09-11T22:48:48.389Z,81.95
2022-09-11T22:51:15.008Z,81.57
2022-09-11T22:53:41.905Z,81.59
2022-09-11T22:56:09.493Z,81.15
2022-09-11T22:58:38.368Z,81.51
2022-09-11T23:01:05.985Z,81.67
2022-09-11T23:03:32.582Z,81.95
2022-09-11T23:06:18.670Z,81.90
2022-09-11T23:08:48.450Z,81.87
2022-09-11T23:11:17.004Z,83.13
2022-09-11T23:13:43.806Z,83.25
2022-09-11T23:16:31.127Z,83.28
2022-09-11T23:18:59.217Z,83.09
2022-09-11T23:21:26.066Z,83.39
2022-09-11T23:23:54.670Z,83.38
2022-09-11T23:26:21.768Z,83.32
2022-09-11T23:28:48.439Z,83.65
2022-09-11T23:31:18.435Z,83.45
2022-09-11T23:33:45.224Z,83.23
2022-09-11T23:36:12.848Z,83.06
2022-09-11T23:38:44.067Z,82.78
2022-09-11T23:41:10.924Z,82.85
2022-09-11T23:43:37.467Z,82.21
2022-09-11T23:46:04.105Z,82.06
2022-09-11T23:48:30.683Z,82.87
2022-09-11T23:50:57.288Z,82.83
2022-09-11T23:53:23.885Z,82.84
2022-09-11T23:55:50.576Z,81.79
2022-09-11T23:58:17.458Z,81.71
